KPBF

Pine Bluff Regional Grider Field Airport

Pine Bluff, Arkansas, USA
METAR KPBF 182053Z AUTO 32004KT 10SM BKN030 OVC036 29/23 A2994 RMK AO2 SLP135 T02890233 58017
Observed Flight Rules
Aug-18 @ 20:53 UTC (an hour ago) Marginal Visual Flight Rules
Wind Visibility Clouds
320° at 4 knots 10 miles
  • Broken at 3,000' AGL
  • Overcast at 3,600' AGL
Temperatures Readings
Current 29°C / 84°F
Dewpoint 23°C / 73°F
Humidity 70%
Altimeter 29.94" Hg
Pressure 1013.5 hPa
Elevation 62
METAR KPBF 182053Z AUTO 32004KT 10SM BKN030 OVC036 29/23 A2994 RMK AO2 SLP135 T02890233 58017
Observed Flight Rules
Aug-18 @ 20:53 UTC
(an hour ago)
MVFR
Wind Visibility
320° at 4 knots 10 miles
Clouds
  • Broken at 3,000' AGL
  • Overcast at 3,600' AGL
Temperature Dewpoint
29°C / 84°F 23°C / 73°F
Humidity Altimeter Pressure
70% 29.94" Hg 1013.5 hPa